KPWK/PWK METAR and TAF weather

Enter ICAO airport designator
Station Type Date Time Source
KPWK METAR 2019/10/18 10:52 UTC NOAA

KPWK 181052Z 00000KT 10SM CLR 02/01 A3008 RMK AO2 SLP190 T00220006


Station Type Date Time Source
KPWK Decoded METAR 2019/10/18 10:52 UTC NOAA

CHICAGO EXECUTIVE AIRPORT, IL, United States (KPWK) 42-07N 087-54W 203M
Oct 18, 2019 - 06:52 AM EDT / 2019.10.18 1052 UTC
Wind: Calm:0
Visibility: 10 mile(s):0
Sky conditions: clear
Temperature: 36.0 F (2.2 C)
Dew Point: 33.1 F (0.6 C)
Relative Humidity: 89%
Pressure (altimeter): 30.08 in. Hg (1018 hPa)
ob: KPWK 181052Z 00000KT 10SM CLR 02/01 A3008 RMK AO2 SLP190 T00220006
cycle: 11

Station Type Date Time Source
KPWK TAF UTC NOAA

Error!

Example: see airport list